Карточка аэропорта UWLL

Внимание!
Информация на этой странице в стадии наполнения.
Если вы не увидели какой-то информации, или заметили неточность - пожалуйста сообщите нам!
Спасибо!
Команда XR-STAFF
Название аэропортаБаратаевка
Название аэропорта (англ.)Barataevka
Превышение426 ft. (129.8 m.)
Координаты54°16.236', 48°13.416'
Высота перехода900
Эшелон переходаBy ATC
Коды ответчика1000
Зона ОрВДСамара РПИ (UWWW)
Данные METARUWLL 231930Z 25003MPS CAVOK 04/M01 Q1003 R20/090065 NOSIG RMK QFE742/0989
Проноз погоды (TAF)UWLL 231652Z 2318/2418 29003MPS 9999 SCT020 TX13/2412Z TN02/2403Z TEMPO 2318/2320 25005G12MPS BECMG 2320/2322 23005G10MPS TEMPO 2322/2406 19003MPS -SHRA BKN016CB TEMPO 2406/2418 19007G14MPS -SHRA BKN016CB
NOTAMshow/hide NOTAM
AWOS   TABLE

Информация о ВПП


Диспетчерские позиции

Позывной Наименование органа УВД Частота
UWLL_GNDУльяновск-Руление121.8
UWLL_R_APPУльяновск-Круг120.8
UWLL_TWRУльяновск-Старт/Посадка120.4
UWLL_APPУльяновск-Подход127.3



Спутниковое изображение